createdAt,value
2022-09-04T00:00:11.541Z,4.12
2022-09-04T00:03:12.755Z,3.55
2022-09-04T00:05:47.827Z,3.45
2022-09-04T00:08:20.394Z,3.90
2022-09-04T00:11:16.932Z,4.12
2022-09-04T00:13:49.443Z,3.67
2022-09-04T00:16:24.660Z,3.62
2022-09-04T00:19:01.414Z,3.85
2022-09-04T00:21:51.960Z,3.80
2022-09-04T00:24:24.749Z,3.92
2022-09-04T00:27:03.230Z,3.67
2022-09-04T00:29:44.635Z,3.87
2022-09-04T00:32:29.371Z,3.72
2022-09-04T00:35:10.668Z,4.15
2022-09-04T00:37:52.036Z,4.65
2022-09-04T00:40:45.524Z,4.25
2022-09-04T00:43:23.543Z,4.65
2022-09-04T00:46:29.833Z,4.80
2022-09-04T00:49:14.090Z,4.12
2022-09-04T00:51:49.318Z,4.28
2022-09-04T00:54:33.895Z,4.62
2022-09-04T00:57:18.147Z,4.55
2022-09-04T01:00:14.026Z,4.87
2022-09-04T01:03:09.238Z,4.72
2022-09-04T01:06:11.352Z,5.90
2022-09-04T01:09:14.608Z,5.03
2022-09-04T01:11:55.963Z,5.43
2022-09-04T01:14:32.684Z,5.37
2022-09-04T01:17:28.014Z,5.55
2022-09-04T01:20:06.665Z,5.85
2022-09-04T01:23:04.921Z,5.35
2022-09-04T01:25:55.873Z,4.50
2022-09-04T01:28:34.371Z,5.75
2022-09-04T01:31:40.321Z,5.47
2022-09-04T01:34:24.766Z,5.58
2022-09-04T01:37:12.520Z,6.08
2022-09-04T01:39:45.411Z,5.50
2022-09-04T01:42:20.821Z,5.72
2022-09-04T01:44:50.717Z,5.53
2022-09-04T01:47:38.578Z,5.87
2022-09-04T01:50:11.092Z,5.65
2022-09-04T01:52:49.200Z,6.10
2022-09-04T01:55:45.083Z,5.25
2022-09-04T01:58:29.435Z,5.87
2022-09-04T02:01:03.717Z,5.42
2022-09-04T02:03:52.257Z,6.40
2022-09-04T02:06:59.910Z,6.17
2022-09-04T02:09:48.734Z,5.78
2022-09-04T02:12:47.123Z,6.62
2022-09-04T02:15:19.661Z,6.42
2022-09-04T02:17:52.271Z,6.92
2022-09-04T02:20:25.923Z,5.83
2022-09-04T02:25:57.355Z,6.67
2022-09-04T02:28:48.611Z,7.08
2022-09-04T02:31:24.240Z,7.35
2022-09-04T02:33:56.788Z,7.70
2022-09-04T02:36:34.010Z,8.23
2022-09-04T02:39:09.252Z,7.53
2022-09-04T02:41:49.508Z,8.53
2022-09-04T02:44:41.699Z,8.53
2022-09-04T02:47:40.122Z,7.20
2022-09-04T02:50:37.188Z,7.78
2022-09-04T02:53:29.178Z,8.35
2022-09-04T02:56:25.618Z,9.30
2022-09-04T02:59:17.670Z,8.20
2022-09-04T03:01:53.402Z,8.67
2022-09-04T03:04:47.860Z,10.23
2022-09-04T03:07:35.300Z,10.35
2022-09-04T03:10:16.543Z,9.63
2022-09-04T03:12:54.813Z,9.33
2022-09-04T03:15:43.943Z,10.25
2022-09-04T03:18:19.162Z,10.65
2022-09-04T03:20:57.270Z,10.70
2022-09-04T03:23:38.991Z,10.45
2022-09-04T03:26:29.848Z,10.08
2022-09-04T03:29:14.999Z,10.68
2022-09-04T03:32:15.525Z,10.25
2022-09-04T03:34:42.429Z,10.00
2022-09-04T03:37:28.427Z,10.23
2022-09-04T03:40:29.657Z,10.85
2022-09-04T03:43:02.207Z,9.30
2022-09-04T03:48:17.584Z,9.03
2022-09-04T03:51:01.854Z,9.63
2022-09-04T03:53:39.950Z,10.17
2022-09-04T03:56:24.247Z,9.50
2022-09-04T03:59:08.338Z,8.93
2022-09-04T04:01:52.576Z,9.15
2022-09-04T04:04:35.265Z,8.45
2022-09-04T04:07:16.984Z,8.03
2022-09-04T04:09:58.392Z,8.83
2022-09-04T04:12:52.346Z,9.30
2022-09-04T04:15:50.505Z,9.68
2022-09-04T04:18:32.028Z,8.35
2022-09-04T04:21:04.568Z,9.25
2022-09-04T04:23:50.294Z,8.05
2022-09-04T04:26:55.009Z,8.05
2022-09-04T04:29:47.263Z,8.50
2022-09-04T04:32:25.758Z,7.95
2022-09-04T04:34:58.313Z,8.20
2022-09-04T04:37:40.327Z,8.48
2022-09-04T04:40:32.406Z,7.43
2022-09-04T04:43:19.739Z,7.73
2022-09-04T04:46:00.582Z,8.35
2022-09-04T04:48:48.010Z,7.55
2022-09-04T04:51:52.605Z,7.45
2022-09-04T04:54:48.046Z,8.03
2022-09-04T04:57:32.624Z,7.58
2022-09-04T05:00:25.219Z,7.33
2022-09-04T05:03:03.634Z,7.12
2022-09-04T05:06:01.670Z,7.47
2022-09-04T05:09:08.207Z,7.00
2022-09-04T05:11:43.606Z,7.57
2022-09-04T05:14:22.033Z,7.37
2022-09-04T05:17:03.517Z,7.30
2022-09-04T05:19:42.044Z,6.65
2022-09-04T05:22:44.946Z,7.80
2022-09-04T05:25:20.494Z,8.00
2022-09-04T05:28:01.834Z,7.63
2022-09-04T05:30:37.355Z,7.22
2022-09-04T05:33:24.479Z,7.17
2022-09-04T05:35:59.922Z,6.90
2022-09-04T05:38:59.818Z,7.35
2022-09-04T05:41:53.379Z,6.80
2022-09-04T05:44:50.263Z,6.83
2022-09-04T05:47:49.780Z,7.30
2022-09-04T05:50:38.821Z,7.15
2022-09-04T05:53:14.629Z,7.35
2022-09-04T05:56:03.444Z,7.33
2022-09-04T05:58:45.070Z,6.83
2022-09-04T06:01:39.322Z,6.20
2022-09-04T06:04:34.784Z,7.05
2022-09-04T06:07:07.315Z,5.83
2022-09-04T06:09:45.131Z,7.10
2022-09-04T06:12:26.617Z,6.12
2022-09-04T06:15:17.088Z,6.25
2022-09-04T06:17:58.235Z,6.55
2022-09-04T06:20:39.692Z,5.97
2022-09-04T06:23:24.422Z,6.17
2022-09-04T06:26:19.607Z,6.47
2022-09-04T06:29:09.269Z,6.47
2022-09-04T06:32:07.431Z,6.08
2022-09-04T06:34:45.807Z,6.50
2022-09-04T06:37:53.538Z,6.70
2022-09-04T06:40:47.474Z,5.87
2022-09-04T06:43:35.152Z,5.58
2022-09-04T06:46:33.991Z,6.17
2022-09-04T06:49:21.728Z,6.05
2022-09-04T06:52:21.293Z,5.70
2022-09-04T06:54:56.514Z,5.53
2022-09-04T06:57:51.393Z,5.92
2022-09-04T07:00:22.087Z,5.80
2022-09-04T07:03:01.702Z,5.50
2022-09-04T07:06:02.826Z,4.97
2022-09-04T07:08:35.409Z,4.80
2022-09-04T07:11:20.945Z,5.47
2022-09-04T07:13:54.232Z,5.85
2022-09-04T07:16:35.375Z,4.72
2022-09-04T07:19:20.026Z,5.08
2022-09-04T07:22:21.142Z,4.90
2022-09-04T07:25:17.258Z,5.50
2022-09-04T07:27:58.791Z,4.80
2022-09-04T07:30:31.634Z,4.37
2022-09-04T07:36:04.753Z,5.47
2022-09-04T07:38:50.811Z,4.92
2022-09-04T07:41:31.475Z,4.72
2022-09-04T15:14:40.000Z,4.00
2022-09-04T15:17:15.043Z,3.37
2022-09-04T15:20:00.201Z,2.77
2022-09-04T15:22:41.654Z,2.25
2022-09-04T15:25:20.209Z,3.10
2022-09-04T15:27:55.564Z,3.00
2022-09-04T15:30:28.222Z,2.67
2022-09-04T15:35:42.887Z,2.42
2022-09-04T15:38:22.008Z,3.98
2022-09-04T15:41:16.190Z,2.77
2022-09-04T15:43:34.328Z,2.65
2022-09-04T15:48:50.366Z,2.95
2022-09-04T15:51:42.281Z,2.80
2022-09-04T15:54:31.223Z,3.05
2022-09-04T15:57:03.838Z,3.17
2022-09-04T16:02:29.528Z,2.90
2022-09-04T16:05:05.187Z,3.23
2022-09-04T16:07:40.856Z,2.50
2022-09-04T16:10:13.656Z,2.90
2022-09-04T16:12:52.400Z,2.67
2022-09-04T16:15:37.225Z,3.20
2022-09-04T16:18:18.484Z,3.43
2022-09-04T16:20:59.897Z,3.45
2022-09-04T16:23:35.469Z,3.25
2022-09-04T16:26:20.257Z,2.75
2022-09-04T16:28:54.448Z,3.30
2022-09-04T16:31:34.142Z,3.37
2022-09-04T16:34:18.738Z,3.50
2022-09-04T16:36:55.770Z,3.50
2022-09-04T16:39:29.040Z,3.33
2022-09-04T16:42:13.336Z,5.00
2022-09-04T16:44:51.443Z,3.10
2022-09-04T16:47:26.898Z,3.45
2022-09-04T16:49:59.591Z,3.15
2022-09-04T16:55:24.409Z,3.22
2022-09-04T16:58:15.700Z,3.65
2022-09-04T17:01:11.432Z,2.77
2022-09-04T17:03:41.142Z,3.10
2022-09-04T17:06:34.842Z,3.30
2022-09-04T17:09:15.671Z,3.63
2022-09-04T17:11:55.715Z,4.00
2022-09-04T17:14:40.279Z,3.80
2022-09-04T17:17:24.268Z,2.80
2022-09-04T17:29:01.715Z,3.30
2022-09-04T17:29:12.273Z,3.10
2022-09-04T17:31:46.976Z,3.60
2022-09-04T17:40:51.888Z,4.20
2022-09-04T17:40:54.280Z,3.62
2022-09-04T17:42:09.870Z,3.83
2022-09-04T17:44:48.727Z,3.37
2022-09-04T17:47:39.349Z,3.42
2022-09-04T17:50:22.124Z,4.00
2022-09-04T17:53:03.865Z,3.22
2022-09-04T17:55:47.261Z,3.00
2022-09-04T17:58:30.314Z,3.30
2022-09-04T18:01:15.458Z,3.22
2022-09-04T18:04:02.801Z,3.42
2022-09-04T18:06:23.857Z,3.52
2022-09-04T18:08:57.224Z,3.92
2022-09-04T18:11:45.865Z,3.87
2022-09-04T18:14:25.850Z,3.77
2022-09-04T18:17:12.204Z,3.65
2022-09-04T18:19:49.397Z,4.00
2022-09-04T18:22:31.982Z,3.77
2022-09-04T18:25:19.235Z,3.95
2022-09-04T18:28:06.251Z,4.03
2022-09-04T18:37:10.577Z,3.65
2022-09-04T18:37:22.647Z,3.72
2022-09-04T18:37:24.739Z,4.55
2022-09-04T18:38:42.832Z,3.58
2022-09-04T18:49:49.758Z,3.90
2022-09-04T18:50:26.066Z,4.00
2022-09-04T18:50:36.803Z,4.33
2022-09-04T18:50:42.918Z,3.35
2022-09-04T18:51:49.022Z,3.83
2022-09-04T18:54:42.691Z,3.90
2022-09-04T18:57:33.011Z,3.63
2022-09-04T19:00:13.751Z,3.98
2022-09-04T19:02:53.738Z,4.05
2022-09-04T19:05:24.130Z,3.85
2022-09-04T19:08:00.090Z,3.67
2022-09-04T19:10:51.146Z,4.00
2022-09-04T19:13:32.739Z,3.52
2022-09-04T19:16:11.079Z,3.75
2022-09-04T19:18:46.355Z,4.65
2022-09-04T19:21:35.658Z,3.97
2022-09-04T19:24:34.409Z,4.42
2022-09-04T19:27:00.509Z,3.90
2022-09-04T19:29:42.886Z,3.98
2022-09-04T19:32:21.339Z,3.75
2022-09-04T19:34:55.915Z,4.37
2022-09-04T19:39:15.465Z,4.22
2022-09-04T19:46:13.087Z,4.03
2022-09-04T19:46:16.922Z,3.87
2022-09-04T19:46:19.009Z,4.58
2022-09-04T19:48:13.801Z,3.70
2022-09-04T19:53:21.577Z,4.42
2022-09-04T19:53:44.953Z,4.33
2022-09-04T19:56:28.021Z,4.70
2022-09-04T19:59:00.557Z,3.98
2022-09-04T20:01:35.954Z,4.22
2022-09-04T20:04:14.338Z,4.20
2022-09-04T20:06:53.549Z,4.40
2022-09-04T20:09:44.212Z,4.13
2022-09-04T20:12:31.772Z,3.83
2022-09-04T20:15:08.739Z,4.30
2022-09-04T20:17:51.666Z,4.78
2022-09-04T20:20:25.710Z,4.28
2022-09-04T20:23:34.179Z,4.08
2022-09-04T20:25:53.274Z,4.87
2022-09-04T20:28:29.642Z,4.62
2022-09-04T20:31:28.194Z,4.42
2022-09-04T20:33:41.164Z,4.12
2022-09-04T20:36:14.118Z,4.78
2022-09-04T20:38:53.006Z,4.50
2022-09-04T20:41:47.905Z,3.70
2022-09-04T20:44:26.671Z,4.00
2022-09-04T20:52:44.255Z,5.40
2022-09-04T20:52:53.680Z,4.12
2022-09-04T20:53:09.583Z,4.45
2022-09-04T20:55:47.799Z,4.90
2022-09-04T21:03:05.808Z,4.12
2022-09-04T21:03:10.112Z,4.83
2022-09-04T21:03:42.562Z,4.63
2022-09-04T21:06:24.450Z,4.80
2022-09-04T21:09:13.095Z,4.40
2022-09-04T21:11:54.765Z,4.53
2022-09-04T21:14:44.766Z,4.57
2022-09-04T21:17:33.540Z,4.83
2022-09-04T21:20:13.700Z,5.30
2022-09-04T21:23:10.243Z,4.80
2022-09-04T21:25:48.495Z,4.62
2022-09-04T21:28:48.369Z,4.85
2022-09-04T21:31:44.276Z,4.60
2022-09-04T21:34:22.260Z,5.13
2022-09-04T21:37:04.908Z,4.78
2022-09-04T21:40:01.721Z,5.22
2022-09-04T21:42:42.916Z,5.57
2022-09-04T21:45:39.340Z,5.15
2022-09-04T21:48:35.850Z,4.90
2022-09-04T21:51:16.965Z,5.22
2022-09-04T21:53:48.176Z,5.35
2022-09-04T22:02:25.151Z,5.00
2022-09-04T22:02:44.437Z,5.50
2022-09-04T22:02:46.080Z,5.03
2022-09-04T22:04:15.308Z,5.05
2022-09-04T22:10:06.629Z,5.00
2022-09-04T22:13:35.215Z,4.67
2022-09-04T22:13:38.524Z,4.95
2022-09-04T22:15:04.944Z,5.03
2022-09-04T22:18:04.565Z,4.90
2022-09-04T22:20:44.378Z,4.97
2022-09-04T22:23:52.063Z,5.35
2022-09-04T22:26:51.947Z,4.95
2022-09-04T22:29:48.620Z,5.45
2022-09-04T22:32:52.878Z,5.62
2022-09-04T22:35:44.818Z,4.87
2022-09-04T22:38:36.909Z,5.40
2022-09-04T22:41:31.877Z,5.97
2022-09-04T22:44:13.257Z,4.40
2022-09-04T22:46:54.670Z,4.62
2022-09-04T22:49:30.895Z,6.23
2022-09-04T22:52:26.211Z,5.30
2022-09-04T22:55:39.113Z,5.05
2022-09-04T22:58:28.894Z,5.95
2022-09-04T23:01:27.122Z,4.95
2022-09-04T23:04:05.249Z,5.95
2022-09-04T23:11:14.106Z,4.70
2022-09-04T23:13:52.187Z,5.80
2022-09-04T23:13:55.007Z,5.00
2022-09-04T23:15:28.820Z,5.53
2022-09-04T23:19:23.736Z,5.53
2022-09-04T23:26:33.529Z,4.87
2022-09-04T23:26:49.213Z,5.55
2022-09-04T23:26:58.781Z,4.90
2022-09-04T23:29:40.930Z,5.83
2022-09-04T23:32:18.307Z,5.37
2022-09-04T23:35:18.162Z,5.28
2022-09-04T23:38:03.130Z,5.25
2022-09-04T23:40:38.439Z,5.30
2022-09-04T23:43:42.589Z,4.58
2022-09-04T23:46:30.406Z,5.08
2022-09-04T23:49:08.382Z,6.22
2022-09-04T23:51:46.948Z,5.00
2022-09-04T23:54:25.466Z,5.83
2022-09-04T23:57:03.296Z,5.37
2022-09-04T23:59:36.341Z,4.75
